Terminal Aerodrome Forecast
Issued by NWS Binghamton, NY

Home | Current Version | Previous Version | Text Only | Print | Product List | Glossary On
Versions: 1 2 3 4 5 6 7 8 9 10 11 12 13 14 15 16 17 18
000
FTUS41 KBGM 241100
TAFAVP
TAF
KAVP 241133Z 2412/2512 33010KT P6SM SCT025 BKN040
      TEMPO 2412/2414 OVC025
     FM241700 33010G18KT P6SM FEW040 SCT100
     FM242200 33007KT P6SM SKC
     FM251000 VRB03KT P6SM SCT025=

USA.gov is the U.S. government's official web portal to all federal, state and local government web resources and services.